x

Central Aleutians 230nm Sw Dutch Harbor (46072) Wave Buoy

12:50 - Sun 3rd May 2015 All times are UTC.

  • Sig Wave height 10.5ft
  • Peak Period 8s
  • Average Period 6s
  • Wind
    36mph, 45mph gusts
  • Sea Temp 42°f
  • Air Temp 40°f
  • Sea Pressure 1007.9mb

More Historic Weather Station data

Upgrade to MSW Pro to gain access to the past 30 days of data for over 8000 Wavebouys and Weather Stations around the globe.

Join Pro

Comparision Forecast

View Surf forecast
   
dim. 05/03 12:50 10.5ft 8s 6s 36 45 mph 1007.9mb 42f 40f
11:50 10.5ft 7s 6s 31 38 mph 1010.1mb 42f 40f
10:50 9.5ft 7s 5s 31 38 mph 1011.4mb 42f 40f
9:50 8ft 7s 5s 29 36 mph 1013mb 42f 40f
8:50 7ft 7s 5s 29 34 mph 1014.1mb 41f 40f
7:50 7ft 7s 5s 27 34 mph 1015mb 42f 40f
6:50 7ft 6s 5s 27 31 mph 1015.6mb 42f 40f
5:50 6ft 6s 5s 25 29 mph 1016.3mb 42f 40f
4:50 6ft 6s 5s 25 29 mph 1017.1mb 42f 40f
3:50 5.5ft 6s 4s 22 29 mph 1018.1mb 42f 40f
2:50 5.5ft 5s 4s 22 27 mph 1018.5mb 42f 40f
1:50 5ft 5s 4s 22 27 mph 1018.9mb 42f 40f
12:50 4.5ft 5s 4s 22 27 mph 1019.6mb 42f 40f
sam. 05/02 11:50 3.5ft 4s 4s 20 25 mph 1020.4mb 42f 40f
10:50 4ft 4s 4s 20 22 mph 1020.9mb 42f 40f
9:50 3.5ft 4s 4s 18 22 mph 1021.5mb 42f 40f
8:50 3.5ft 7s 4s 18 20 mph 1021.7mb 42f 40f
7:50 3.5ft 8s 5s 13 16 mph 1022.1mb 42f 40f
6:50 3.5ft 7s 4s 13 16 mph 1022.4mb 42f 40f
5:50 3.5ft 7s 5s 11 16 mph 1022.2mb 42f 40f
4:50 3ft 7s 5s 11 13 mph 1022mb 42f 40f
3:50 3.5ft 8s 5s 11 13 mph 1022.3mb 41f 40f
2:50 3.5ft 8s 5s 11 13 mph 1022.6mb 41f 40f
1:50 3.5ft 7s 5s 11 13 mph 1022.5mb 41f 40f
12:50 3.5ft 7s 5s 11 13 mph 1022.7mb 42f 40f
11:50 3.5ft 7s 5s 11
mph
1023mb 42f 40f
10:50 4ft 6s 5s 11 13 mph 1023mb 42f 40f
9:50 4ft 8s 5s 9 11 mph 1023.2mb 42f 40f
8:50 4ft 8s 5s 11 16 mph 1023.3mb 42f 41f
7:50 4.5ft 6s 5s 11 13 mph 1023.1mb 42f 40f
6:50 4.5ft 4s 5s 11 13 mph 1022.5mb 42f 41f
5:50 4ft 7s 5s 11 16 mph 1022.4mb 42f 41f
4:50 4ft 8s 5s 13 16 mph 1022.3mb 42f 41f
3:50 4.5ft 8s 6s 13 16 mph 1022.2mb 42f 41f
2:50 4.5ft 7s 6s 13 16 mph 1021.8mb 42f 40f
1:50 4ft 8s 5s 11 13 mph 1021.8mb 42f 40f
12:50 4.5ft 8s 5s 11 13 mph 1021.7mb 42f 39f
ven. 05/01 11:50 4.5ft 9s 5s 13 16 mph 1021.3mb 42f 39f
10:50 4.5ft 7s 5s 13 16 mph 1021.2mb 42f 39f
9:50 4.5ft 9s 5s 13 16 mph 1021.3mb 41f 39f
8:50 5ft 8s 5s 13 16 mph 1020.7mb 41f 39f
7:50 4.5ft 8s 5s 16 18 mph 1020.1mb 41f 39f
6:50 4.5ft 9s 5s 16 18 mph 1019.9mb 41f 39f
5:50 4.5ft 9s 6s 11 13 mph 1019.6mb 41f 39f
4:50 5ft 8s 6s 11 13 mph 1019mb 41f 38f
3:50 4.5ft 9s 6s 13 16 mph 1018.4mb 41f 38f
2:50 4.5ft 8s 6s 11 13 mph 1018.3mb 41f 39f
1:50 5ft 8s 6s 11 16 mph 1018.2mb 41f 39f
12:50 5ft 8s 6s 11 13 mph 1018mb 41f 39f
11:50 5ft 9s 6s 7
mph
1018.1mb 41f 39f
10:50 5.5ft 9s 6s 7 11 mph 1018mb 41f 39f
9:50 5.5ft 10s 6s 4 7 mph 1018mb 41f 38f
8:50 6ft 8s 6s  -  2 mph 1018.2mb 41f 38f
7:50 6ft 8s 6s 4 13 mph 1017.9mb 41f 38f
6:50 6.5ft 8s 6s 7 9 mph 1017.4mb 41f 39f
5:50 6.5ft 9s 6s 11 13 mph 1017.1mb 42f 40f
4:50 7ft 8s 6s 11 13 mph 1017.1mb 42f 40f
3:50 6ft 7s 6s 11 13 mph 1017.1mb 42f 40f
2:50 6ft 10s 6s 13 16 mph 1016.9mb 42f 41f
1:50 7ft 10s 6s 11 13 mph 1017.3mb 41f 40f
12:50 7.5ft 9s 7s 13 16 mph 1017.2mb 41f 41f
jeu. 04/30 11:50 8ft 10s 7s 13 16 mph 1017.1mb 41f 40f
10:50 8.5ft 9s 7s 13 18 mph 1017.2mb 41f 40f
9:50 9ft 8s 7s 13 16 mph 1017.3mb 41f 40f
8:50 9ft 10s 7s 13 16 mph 1016.8mb 41f 40f
7:50 9.5ft 9s 7s 16 20 mph 1016.4mb 41f 40f
6:50 10ft 9s 7s 16 20 mph 1016.1mb 41f 40f
5:50 9ft 9s 6s 16 20 mph 1015.7mb 41f 40f
4:50 9.5ft 10s 7s 16 22 mph 1015.1mb 41f 40f
3:50 11ft 10s 7s 16 18 mph 1014.5mb 41f 39f
2:50 10ft 9s 7s 18 22 mph 1014.3mb 41f 39f
1:50 10.5ft 9s 7s 18 27 mph 1013.9mb 41f 39f
12:50 11ft 10s 7s 20 25 mph 1013.3mb 41f 41f
11:50 11ft 8s 7s 20 22 mph 1013.2mb 41f 41f
10:50 11ft 10s 7s 22 27 mph 1012.6mb 41f 41f
9:50 11ft 9s 7s 20 29 mph 1011.9mb 41f 41f
8:50 12.5ft 9s 7s 20 29 mph 1011.4mb 41f 41f
7:50 12ft 9s 7s 22 27 mph 1010.7mb 41f 41f
6:50 12.5ft 8s 7s 25 34 mph 1009.8mb 41f 41f
5:50 12ft 8s 6s 25 31 mph 1009.2mb 41f 41f
4:50 12.5ft 10s 7s 25 31 mph 1008.9mb 41f 41f
3:50 12ft 9s 7s 27 34 mph 1008.2mb 41f 40f
2:50 11.5ft 10s 7s 25 29 mph 1008.4mb 41f 41f
1:50 12.5ft 10s 7s 25 31 mph 1008.2mb 41f 41f
12:50 11ft 10s 7s 25 29 mph 1007.9mb 41f 41f
mer. 04/29 11:50 10.5ft 11s 7s 25 29 mph 1007.7mb 41f 41f
10:50 10.5ft 9s 7s 22 27 mph 1007.6mb 41f 41f
9:50 12ft 11s 8s 22 29 mph 1007.3mb 41f 40f
8:50 11ft 11s 7s 20 25 mph 1006.9mb 41f 40f
7:50 12.5ft 11s 7s 25 31 mph 1006.8mb 41f 39f
6:50 13ft 10s 7s 22 27 mph 1006.5mb 41f 40f
5:50 14ft 11s 8s 22 31 mph 1006.1mb 41f 38f
4:50 13ft 11s 7s 25 31 mph 1005.6mb 41f 40f
3:50 13.5ft 11s 7s 27 36 mph 1005.3mb 41f 38f
2:50 14ft 11s 7s 20 25 mph 1005.3mb 41f 38f
1:50 15.5ft 11s 8s 22 31 mph 1005.4mb 41f 38f